Lloc web orientat als practicants d'activitats
Centenari de l'SMC: 100 anys mirant el cel

Dades de l'estació automàtica Lleida - la Femosa

?
?

Resum diari

22:30 TU
Dades diàries de l'estació meteorològica
Temperatura mitjana 11.6 °C
Temperatura màxima 19.7 °C 14:28 TU
Temperatura mínima 1.8 °C 5:12 TU
Humitat relativa mitjana 66%
Precipitació acumulada 0.0 mm
Ratxa màxima del vent (10 m) 23.0 km/h - 217º 14:58 TU
Irradiació solar global 22.3 MJ/m2

El tram horari està expressat en Temps Universal (TU). Cal sumar una hora en horari d'hivern i dues en horari d'estiu per passar a l'hora oficial.

Lleida - la Femosa

Metadades estació meteorològica
Municipi Lleida
Comarca Segrià
Altitud 170 m
Data alta 21.08.2018
Estat actual Operativa
Dades de període
Període
TU
TM
°C
TX
°C
TN
°C
HRM
%
PPT
mm
VVM (10 m)
km/h
DVM (10 m)
graus
VVX (10 m)
km/h
RS
W/m2
00:00 - 00:30 6.8 7.1 6.5 68 0.0 3.6 289 4.7 0
00:30 - 01:00 6.2 6.8 5.3 73 0.0 1.4 20 3.6 0
01:00 - 01:30 5.6 5.8 5.3 78 0.0 1.4 132 2.9 0
01:30 - 02:00 5.7 6.1 5.2 77 0.0 1.8 50 5.8 0
02:00 - 02:30 5.7 6.1 4.8 77 0.0 5.8 70 8.6 0
02:30 - 03:00 5.0 5.4 4.6 84 0.0 4.7 51 6.1 0
03:00 - 03:30 5.1 5.3 4.7 85 0.0 1.4 59 4.3 0
03:30 - 04:00 4.5 4.9 3.7 87 0.0 2.2 48 6.5 0
04:00 - 04:30 3.3 3.5 3.2 93 0.0 1.1 36 3.6 0
04:30 - 05:00 3.0 3.5 2.7 93 0.0 0.7 153 3.2 0
05:00 - 05:30 2.4 2.9 1.8 96 0.0 1.8 51 4.0 1
05:30 - 06:00 2.5 3.1 2.1 96 0.0 2.5 70 5.0 39
06:00 - 06:30 3.8 5.0 3.1 94 0.0 2.5 168 4.7 148
06:30 - 07:00 5.5 6.8 4.7 86 0.0 0.7 15 3.2 208
07:00 - 07:30 7.5 8.6 6.8 75 0.0 0.7 323 3.6 320
07:30 - 08:00 8.7 9.0 8.4 70 0.0 3.2 290 7.2 427
08:00 - 08:30 9.9 10.4 9.1 65 0.0 2.9 321 7.2 528
08:30 - 09:00 10.9 11.6 10.1 62 0.0 2.5 168 6.8 599
09:00 - 09:30 11.7 12.0 11.3 58 0.0 2.5 308 6.8 684
09:30 - 10:00 12.5 13.6 11.9 56 0.0 2.9 341 11.9 763
10:00 - 10:30 14.0 14.6 13.6 52 0.0 4.3 216 14.4 831
10:30 - 11:00 14.8 15.4 14.3 49 0.0 5.0 299 11.9 874
11:00 - 11:30 15.7 16.3 15.0 46 0.0 5.0 274 11.5 906
11:30 - 12:00 16.6 17.6 15.7 44 0.0 5.4 272 14.8 908
12:00 - 12:30 17.3 18.0 16.9 42 0.0 7.2 282 16.9 867
12:30 - 13:00 17.9 18.5 17.2 40 0.0 9.7 247 18.0 825
13:00 - 13:30 18.5 19.0 18.0 37 0.0 7.6 266 17.3 764
13:30 - 14:00 18.9 19.6 18.3 32 0.0 10.1 231 22.0 636
14:00 - 14:30 18.5 19.7 17.8 32 0.0 10.8 232 22.3 574
14:30 - 15:00 19.0 19.6 18.4 37 0.0 11.5 226 23.0 532
15:00 - 15:30 18.3 19.5 17.6 42 0.0 10.8 219 19.4 270
15:30 - 16:00 18.1 18.5 17.9 43 0.0 8.6 195 18.0 259
16:00 - 16:30 17.7 18.4 17.0 49 0.0 11.5 195 19.8 184
16:30 - 17:00 17.2 17.5 16.8 53 0.0 13.3 193 20.5 154
17:00 - 17:30 16.5 16.8 15.9 55 0.0 12.6 199 20.9 78
17:30 - 18:00 15.8 15.9 15.5 60 0.0 12.2 192 20.9 47
18:00 - 18:30 15.1 15.5 14.8 65 0.0 13.0 184 23.0 11
18:30 - 19:00 14.4 14.7 14.2 68 0.0 13.0 185 20.5 0
19:00 - 19:30 13.9 14.3 13.8 71 0.0 6.1 152 16.6 0
19:30 - 20:00 13.5 13.7 13.2 73 0.0 2.9 333 6.1 0
20:00 - 20:30 13.4 13.6 13.3 73 0.0 4.7 124 10.8 0
20:30 - 21:00 13.2 13.5 13.0 74 0.0 5.0 129 10.1 0
21:00 - 21:30 12.9 13.3 12.4 75 0.0 3.6 103 6.8 0
21:30 - 22:00 12.4 12.8 12.0 79 0.0 5.4 42 8.6 0
22:00 - 22:30 12.6 12.7 12.4 80 0.0 5.8 70 9.0 0
22:30 - 23:00 12.4 12.6 12.2 80 0.0 6.5 76 10.1 0
23:00 - 23:30 11.9 12.1 11.7 83 0.0 7.9 71 10.8 0

Les dades en taronja només han passat un control de qualitat automàtic. Resta pendent la seva validació definitiva.